Airfield :
LOGIN :

Register | Disclaimer

   EN    FR    IT 

 










Legend :    VFR   Marginal VFR   IFR   Intensive IFR   Very Intensive IFR
Visi :
Ceiling :
>= 8 km
>= 3000ft
5 to 8 km
1000 to 3000 ft
1500m to 5 km
500 to 1000 ft
800 to 1500m
200 to 500 ft
< 800m
< 200 ft
Symbols :   Thunderstorms  Fog  Heavy snow  Heavy precipitations  Wind > 20 kt
SIGMETs :     Misc.  Thunderstorms  Icing  Turbulence  Mountain Waves  Volcanic Ashes







- Airport Elevation : 1416 ft
- IATA code : ZRH


LSZH - Zurich

CURRENT METAR :
  • 191350Z 03004KT 350V060 5000 HZ NSC 16/10 Q1021 NOSIG

EXPIRED METARs :
  • 191320Z VRB03KT 5000 HZ NSC 16/10 Q1021 NOSIG
  • 191250Z 03005KT 350V080 5000 HZ NSC 15/10 Q1021 NOSIG
  • 191220Z 06004KT 020V110 5000 FEW016 14/10 Q1021 NOSIG
  • 191150Z 04003KT 330V130 5000 FEW014 SCT016 14/10 Q1022 NOSIG
  • 191120Z 08004KT 040V130 5000 BKN014 14/10 Q1022 BECMG SCT014

TAF TAF LSZH
Valid from the 19 at 12:00 until the 20 at 18:00 UTC


191125Z 1912/2018 05006KT 5000 BKN013 TX19/1914Z TN05/2004Z TX18/2014Z
BECMG 1912/1913 7000 FEW014
BECMG 1918/1921 VRB03KT 7000 NSC
BECMG 1923/2002 4000 MIFG
BECMG 2002/2004 2000 BCFG BKN003
BECMG 2007/2009 4000 BR BKN010
BECMG 2009/2012 05007KT 7000 FEW015
ATIS : +41 43 816 2295 (DEP) +41 43 816 2294 (ARR)
No reported NOTAMs for that airfield.



MET'MAP, your aeronautical weather chart ! - Copyright ORBIFLY December 2007 - Disclaimer

ORBIFLY MET'MAP TEAM :

Programming & Development : Alexandra Zaïnal
Concept & Development : Baudouin d'Aumeries
Co-Development & Prog : Marc-Olivier Méhu
Technical & hardware support : Manuel Goepfert

Contact : metmap@orbifly.com




SOURCES & CREDITS :

   NOAA